createdAt,value
2018-03-27T00:01:56.981Z,4.58
2018-03-27T00:04:25.413Z,4.64
2018-03-27T00:06:57.078Z,4.60
2018-03-27T00:09:25.604Z,4.58
2018-03-27T00:11:54.234Z,4.64
2018-03-27T00:14:22.654Z,4.60
2018-03-27T00:16:52.820Z,4.58
2018-03-27T00:19:21.192Z,4.49
2018-03-27T00:21:49.624Z,4.45
2018-03-27T00:24:18.062Z,4.45
2018-03-27T00:26:52.639Z,4.34
2018-03-27T00:29:30.743Z,4.47
2018-03-27T00:32:11.685Z,4.43
2018-03-27T00:34:52.260Z,4.35
2018-03-27T00:37:36.941Z,4.39
2018-03-27T00:40:17.690Z,4.43
2018-03-27T00:42:53.167Z,4.41
2018-03-27T00:45:21.493Z,4.42
2018-03-27T00:47:49.816Z,4.43
2018-03-27T00:50:18.195Z,4.40
2018-03-27T00:52:46.596Z,4.44
2018-03-27T00:55:16.388Z,4.41
2018-03-27T00:57:44.756Z,4.34
2018-03-27T01:00:13.196Z,4.32
2018-03-27T01:02:41.643Z,4.35
2018-03-27T01:05:10.125Z,4.39
2018-03-27T01:07:40.541Z,4.41
2018-03-27T01:10:08.976Z,4.42
2018-03-27T01:12:39.392Z,4.35
2018-03-27T01:15:07.906Z,4.34
2018-03-27T01:17:36.385Z,4.38
2018-03-27T01:20:04.826Z,4.40
2018-03-27T01:22:33.268Z,4.42
2018-03-27T01:25:01.728Z,4.40
2018-03-27T01:27:36.183Z,4.30
2018-03-27T01:30:04.705Z,4.32
2018-03-27T01:32:33.128Z,4.26
2018-03-27T01:35:01.551Z,4.23
2018-03-27T01:37:33.525Z,4.18
2018-03-27T01:40:01.955Z,4.16
2018-03-27T01:42:30.389Z,4.18
2018-03-27T01:44:58.829Z,4.19
2018-03-27T01:47:28.656Z,4.22
2018-03-27T01:49:57.036Z,4.21
2018-03-27T01:52:25.433Z,4.19
2018-03-27T01:54:53.844Z,4.18
2018-03-27T01:57:22.275Z,4.19
2018-03-27T01:59:51.589Z,4.10
2018-03-27T02:02:20.342Z,4.12
2018-03-27T02:04:48.773Z,4.05
2018-03-27T02:07:17.181Z,3.92
2018-03-27T02:09:45.633Z,3.88
2018-03-27T02:12:21.156Z,3.93
2018-03-27T02:14:55.784Z,3.83
2018-03-27T02:17:33.732Z,3.89
2018-03-27T02:20:08.241Z,3.84
2018-03-27T02:22:43.220Z,3.88
2018-03-27T02:25:11.588Z,3.89
2018-03-27T02:27:39.984Z,3.80
2018-03-27T02:30:08.413Z,3.80
2018-03-27T02:32:36.868Z,3.77
2018-03-27T02:35:05.269Z,3.61
2018-03-27T02:37:35.318Z,3.60
2018-03-27T02:40:03.735Z,3.62
2018-03-27T02:42:32.475Z,3.68
2018-03-27T02:45:00.890Z,3.63
2018-03-27T02:47:30.622Z,3.64
2018-03-27T02:50:01.131Z,3.64
2018-03-27T02:52:33.260Z,3.70
2018-03-27T02:55:01.681Z,3.77
2018-03-27T02:57:30.083Z,3.79
2018-03-27T02:59:58.520Z,3.77
2018-03-27T03:02:30.634Z,3.68
2018-03-27T03:05:00.558Z,3.62
2018-03-27T03:07:28.955Z,3.65
2018-03-27T03:09:59.793Z,3.65
2018-03-27T03:12:28.249Z,3.64
2018-03-27T03:14:56.653Z,3.60
2018-03-27T03:17:25.082Z,3.63
2018-03-27T03:19:53.532Z,3.83
2018-03-27T03:22:21.979Z,3.73
2018-03-27T03:24:50.419Z,3.52
2018-03-27T03:27:20.498Z,3.47
2018-03-27T03:29:50.502Z,3.54
2018-03-27T03:32:18.902Z,3.52
2018-03-27T03:34:50.738Z,3.51
2018-03-27T03:37:19.133Z,3.50
2018-03-27T03:39:47.513Z,3.52
2018-03-27T03:42:15.925Z,3.63
2018-03-27T03:44:45.865Z,3.59
2018-03-27T03:47:14.558Z,3.59
2018-03-27T03:49:42.978Z,3.57
2018-03-27T03:52:12.949Z,3.51
2018-03-27T03:54:41.394Z,3.64
2018-03-27T03:57:15.916Z,3.52
2018-03-27T03:59:45.785Z,3.59
2018-03-27T04:02:14.189Z,3.38
2018-03-27T04:04:42.956Z,3.48
2018-03-27T04:07:12.953Z,3.43
2018-03-27T04:09:41.372Z,3.35
2018-03-27T04:12:09.898Z,3.22
2018-03-27T04:14:38.341Z,3.22
2018-03-27T04:17:06.749Z,3.28
2018-03-27T04:19:38.585Z,3.01
2018-03-27T04:22:07.025Z,2.88
2018-03-27T04:24:35.513Z,3.04
2018-03-27T04:27:03.948Z,3.08
2018-03-27T04:29:34.360Z,3.04
2018-03-27T04:32:03.113Z,2.91
2018-03-27T04:34:33.261Z,2.96
2018-03-27T04:37:01.706Z,2.90
2018-03-27T04:39:30.154Z,2.95
2018-03-27T04:41:59.553Z,2.62
2018-03-27T04:44:28.165Z,2.58
2018-03-27T04:47:03.610Z,2.58
2018-03-27T04:49:32.213Z,2.49
2018-03-27T04:52:00.645Z,2.53
2018-03-27T04:54:29.059Z,2.58
2018-03-27T04:56:57.437Z,2.59
2018-03-27T04:59:25.946Z,2.70
2018-03-27T05:01:54.397Z,2.48
2018-03-27T05:04:24.377Z,2.39
2018-03-27T05:06:54.358Z,2.59
2018-03-27T05:09:22.776Z,2.60
2018-03-27T05:11:51.212Z,2.59
2018-03-27T05:14:19.645Z,2.64
2018-03-27T05:16:48.057Z,2.51
2018-03-27T05:19:16.493Z,2.47
2018-03-27T05:21:44.889Z,2.47
2018-03-27T05:24:15.290Z,2.46
2018-03-27T05:26:43.734Z,2.36
2018-03-27T05:29:12.493Z,2.35
2018-03-27T05:31:40.929Z,2.47
2018-03-27T05:34:11.293Z,2.37
2018-03-27T05:36:39.726Z,2.31
2018-03-27T05:39:08.197Z,2.55
2018-03-27T05:41:38.665Z,2.40
2018-03-27T05:44:09.996Z,2.46
2018-03-27T05:46:40.593Z,2.38
2018-03-27T05:49:09.137Z,2.27
2018-03-27T05:51:37.515Z,2.27
2018-03-27T05:54:06.397Z,2.18
2018-03-27T05:56:34.833Z,2.35
2018-03-27T05:59:03.253Z,2.50
2018-03-27T06:01:32.613Z,2.70
2018-03-27T06:04:01.064Z,2.94
2018-03-27T06:06:29.489Z,3.11
2018-03-27T06:08:57.871Z,3.34
2018-03-27T06:11:26.286Z,3.66
2018-03-27T06:13:54.843Z,3.92
2018-03-27T06:16:23.252Z,4.07
2018-03-27T06:18:51.687Z,4.31
2018-03-27T06:21:20.137Z,4.53
2018-03-27T06:23:48.555Z,4.71
2018-03-27T06:26:19.281Z,4.88
2018-03-27T06:28:47.718Z,4.93
2018-03-27T06:31:16.299Z,5.39
2018-03-27T06:33:44.669Z,5.74
2018-03-27T06:36:13.081Z,6.14
2018-03-27T06:38:42.702Z,6.37
2018-03-27T06:41:11.128Z,6.27
2018-03-27T06:43:40.968Z,6.70
2018-03-27T06:46:09.410Z,6.91
2018-03-27T06:48:38.132Z,6.49
2018-03-27T06:51:06.527Z,6.53
2018-03-27T06:53:34.962Z,6.62
2018-03-27T06:56:05.005Z,6.80
2018-03-27T06:58:33.432Z,7.11
2018-03-27T07:01:02.740Z,7.04
2018-03-27T07:03:31.765Z,7.08
2018-03-27T07:06:00.234Z,7.02
2018-03-27T07:08:30.248Z,7.24
2018-03-27T07:10:58.702Z,7.60
2018-03-27T07:13:28.357Z,7.77
2018-03-27T07:15:56.790Z,8.22
2018-03-27T07:18:25.224Z,8.08
2018-03-27T07:20:53.693Z,8.37
2018-03-27T07:23:22.105Z,8.45
2018-03-27T07:25:51.849Z,8.63
2018-03-27T07:28:21.052Z,9.43
2018-03-27T07:30:50.857Z,9.76
2018-03-27T07:33:21.013Z,9.12
2018-03-27T07:35:50.789Z,9.12
2018-03-27T07:38:19.246Z,9.29
2018-03-27T07:40:47.693Z,9.88
2018-03-27T07:43:16.790Z,10.54
2018-03-27T07:45:47.842Z,11.79
2018-03-27T07:48:16.210Z,12.38
2018-03-27T07:50:46.420Z,13.08
2018-03-27T07:53:15.888Z,13.90
2018-03-27T07:55:45.866Z,14.56
2018-03-27T07:58:13.354Z,14.94
2018-03-27T08:00:42.888Z,15.06
2018-03-27T08:03:11.321Z,15.48
2018-03-27T08:05:39.147Z,14.68
2018-03-27T08:08:08.917Z,14.83
2018-03-27T08:10:37.342Z,15.50
2018-03-27T08:13:05.734Z,15.89
2018-03-27T08:15:33.030Z,16.43
2018-03-27T08:18:02.508Z,16.92
2018-03-27T08:20:30.927Z,16.42
2018-03-27T08:22:58.292Z,16.73
2018-03-27T08:25:28.048Z,16.08
2018-03-27T08:27:56.397Z,16.06
2018-03-27T08:30:24.846Z,16.89
2018-03-27T08:32:52.166Z,17.36
2018-03-27T08:35:21.636Z,17.49
2018-03-27T08:37:50.062Z,17.10
2018-03-27T08:40:18.558Z,16.85
2018-03-27T08:42:47.027Z,17.28
2018-03-27T08:45:15.453Z,17.20
2018-03-27T08:47:45.382Z,17.26
2018-03-27T08:50:13.833Z,17.73
2018-03-27T08:52:43.369Z,17.57
2018-03-27T08:55:12.698Z,18.29
2018-03-27T08:57:41.074Z,18.13
2018-03-27T09:00:09.516Z,17.60
2018-03-27T09:02:38.195Z,18.33
2018-03-27T09:05:07.690Z,18.75
2018-03-27T09:07:36.133Z,17.34
2018-03-27T09:10:04.611Z,17.66
2018-03-27T09:12:34.065Z,18.59
2018-03-27T09:15:02.725Z,18.82
2018-03-27T09:17:31.229Z,18.66
2018-03-27T09:19:59.600Z,19.44
2018-03-27T09:22:29.258Z,20.11
2018-03-27T09:24:58.704Z,20.53
2018-03-27T09:27:27.077Z,19.84
2018-03-27T09:29:55.521Z,20.77
2018-03-27T09:32:23.906Z,21.50
2018-03-27T09:34:52.270Z,22.36
2018-03-27T09:37:20.758Z,22.09
2018-03-27T09:39:50.552Z,21.26
2018-03-27T09:42:19.013Z,21.82
2018-03-27T09:44:48.890Z,21.96
2018-03-27T09:47:17.886Z,20.50
2018-03-27T09:49:46.297Z,20.52
2018-03-27T09:52:17.257Z,19.68
2018-03-27T09:54:45.728Z,18.56
2018-03-27T09:57:14.207Z,17.60
2018-03-27T09:59:42.712Z,17.45
2018-03-27T10:02:11.081Z,17.50
2018-03-27T10:04:39.460Z,18.49
2018-03-27T10:07:07.909Z,19.25
2018-03-27T10:09:36.360Z,19.79
2018-03-27T10:12:04.773Z,19.05
2018-03-27T10:14:34.206Z,17.85
2018-03-27T10:17:02.588Z,17.75
2018-03-27T10:19:32.732Z,17.08
2018-03-27T10:22:01.463Z,16.15
2018-03-27T10:24:29.857Z,14.99
2018-03-27T10:27:01.711Z,13.87
2018-03-27T10:29:30.160Z,13.63
2018-03-27T10:31:58.584Z,13.53
2018-03-27T10:34:28.294Z,14.27
2018-03-27T10:36:58.054Z,14.41
2018-03-27T10:39:27.800Z,14.20
2018-03-27T10:41:57.125Z,14.34
2018-03-27T10:44:25.600Z,13.75
2018-03-27T10:46:54.033Z,13.63
2018-03-27T10:49:22.431Z,13.70
2018-03-27T10:51:52.820Z,13.58
2018-03-27T10:54:22.666Z,13.60
2018-03-27T10:56:53.113Z,13.41
2018-03-27T10:59:21.549Z,13.24
2018-03-27T11:01:49.957Z,13.11
2018-03-27T11:04:18.404Z,13.07
2018-03-27T11:06:48.275Z,12.73
2018-03-27T11:09:16.658Z,13.00
2018-03-27T11:11:46.469Z,12.97
2018-03-27T11:14:16.252Z,12.76
2018-03-27T11:16:44.690Z,12.77
2018-03-27T11:19:14.405Z,12.78
2018-03-27T11:21:42.881Z,12.92
2018-03-27T11:24:11.607Z,12.87
2018-03-27T11:26:40.049Z,12.68
2018-03-27T11:29:09.600Z,12.47
2018-03-27T11:31:38.941Z,12.67
2018-03-27T11:34:07.396Z,12.35
2018-03-27T11:36:35.822Z,11.93
2018-03-27T11:39:06.142Z,11.94
2018-03-27T11:41:36.065Z,12.09
2018-03-27T11:44:04.462Z,12.36
2018-03-27T11:46:32.873Z,12.66
2018-03-27T11:49:01.627Z,13.03
2018-03-27T11:51:30.049Z,13.55
2018-03-27T11:53:59.569Z,13.52
2018-03-27T11:56:30.688Z,13.54
2018-03-27T11:59:00.237Z,13.35
2018-03-27T12:01:29.842Z,12.79
2018-03-27T12:03:58.405Z,13.08
2018-03-27T12:06:27.863Z,13.34
2018-03-27T12:08:56.334Z,13.41
2018-03-27T12:11:25.771Z,12.97
2018-03-27T12:13:54.189Z,13.12
2018-03-27T12:16:23.918Z,13.17
2018-03-27T12:18:52.337Z,13.32
2018-03-27T12:21:20.733Z,13.12
2018-03-27T12:23:49.156Z,13.10
2018-03-27T12:26:18.636Z,12.66
2018-03-27T12:28:48.206Z,12.38
2018-03-27T12:31:16.971Z,12.37
2018-03-27T12:33:46.410Z,12.32
2018-03-27T12:36:14.866Z,12.30
2018-03-27T12:38:43.277Z,12.46
2018-03-27T12:41:11.716Z,12.52
2018-03-27T12:43:41.394Z,12.40
2018-03-27T12:46:11.624Z,12.58
2018-03-27T12:48:40.073Z,12.28
2018-03-27T12:51:08.547Z,12.16
2018-03-27T12:53:37.060Z,12.02
2018-03-27T12:56:05.502Z,11.97
2018-03-27T12:58:35.296Z,11.82
2018-03-27T13:01:03.673Z,11.48
2018-03-27T13:03:33.426Z,11.40
2018-03-27T13:06:03.264Z,11.27
2018-03-27T13:08:31.715Z,11.33
2018-03-27T13:11:00.446Z,11.50
2018-03-27T13:13:29.533Z,11.49
2018-03-27T13:15:57.949Z,11.30
2018-03-27T13:18:26.373Z,11.06
2018-03-27T13:20:54.791Z,11.21
2018-03-27T13:23:23.556Z,11.21
2018-03-27T13:25:53.001Z,11.14
2018-03-27T13:28:21.468Z,11.15
2018-03-27T13:30:50.034Z,11.12
2018-03-27T13:33:18.444Z,11.15
2018-03-27T13:35:46.921Z,11.30
2018-03-27T13:38:16.773Z,11.30
2018-03-27T13:40:46.305Z,11.47
2018-03-27T13:43:16.026Z,11.30
2018-03-27T13:45:44.449Z,11.62
2018-03-27T13:48:12.928Z,11.24
2018-03-27T13:50:42.392Z,11.15
2018-03-27T13:53:10.760Z,11.42
2018-03-27T13:55:40.677Z,11.60
2018-03-27T13:58:10.243Z,11.72
2018-03-27T14:00:38.677Z,11.84
2018-03-27T14:03:08.576Z,11.77
2018-03-27T14:05:37.304Z,11.76
2018-03-27T14:08:06.700Z,11.50
2018-03-27T14:10:35.112Z,11.35
2018-03-27T14:13:03.543Z,11.35
2018-03-27T14:15:31.935Z,11.05
2018-03-27T14:18:02.557Z,11.10
2018-03-27T14:20:30.977Z,10.98
2018-03-27T14:23:00.441Z,11.00
2018-03-27T14:25:30.264Z,11.09
2018-03-27T14:28:00.872Z,10.97
2018-03-27T14:30:29.351Z,10.68
2018-03-27T14:32:59.207Z,10.64
2018-03-27T14:35:28.655Z,10.69
2018-03-27T14:37:58.113Z,11.03
2018-03-27T14:40:26.596Z,11.05
2018-03-27T14:42:55.048Z,11.25
2018-03-27T14:45:24.925Z,11.10
2018-03-27T14:47:54.295Z,10.87
2018-03-27T14:50:23.796Z,11.02
2018-03-27T14:52:54.457Z,10.74
2018-03-27T14:55:24.177Z,10.58
2018-03-27T14:57:55.412Z,10.62
2018-03-27T15:00:24.825Z,10.45
2018-03-27T15:02:53.241Z,10.44
2018-03-27T15:05:21.669Z,10.40
2018-03-27T15:07:51.222Z,10.36
2018-03-27T15:10:19.751Z,10.50
2018-03-27T15:12:50.557Z,10.59
2018-03-27T15:15:18.979Z,10.59
2018-03-27T15:17:47.403Z,10.48
2018-03-27T15:20:16.975Z,10.48
2018-03-27T15:22:45.465Z,10.49
2018-03-27T15:25:13.869Z,10.51
2018-03-27T15:27:42.356Z,10.47
2018-03-27T15:30:11.769Z,10.43
2018-03-27T15:32:41.623Z,10.26
2018-03-27T15:35:10.190Z,10.15
2018-03-27T15:37:38.604Z,10.07
2018-03-27T15:40:08.513Z,10.04
2018-03-27T15:42:36.927Z,10.12
2018-03-27T15:45:06.832Z,10.00
2018-03-27T15:47:37.843Z,9.89
2018-03-27T15:50:06.297Z,9.77
2018-03-27T15:52:35.657Z,9.50
2018-03-27T15:55:04.096Z,9.44
2018-03-27T15:57:32.565Z,9.47
2018-03-27T16:00:01.008Z,9.45
2018-03-27T16:02:29.510Z,9.38
2018-03-27T16:04:57.937Z,9.45
2018-03-27T16:07:26.346Z,9.43
2018-03-27T16:09:54.772Z,9.53
2018-03-27T16:12:23.215Z,9.54
2018-03-27T16:14:51.683Z,9.50
2018-03-27T16:17:20.136Z,9.46
2018-03-27T16:19:48.576Z,9.37
2018-03-27T16:22:17.289Z,9.27
2018-03-27T16:24:45.752Z,9.27
2018-03-27T16:27:14.180Z,9.22
2018-03-27T16:29:42.608Z,9.19
2018-03-27T16:32:10.964Z,9.10
2018-03-27T16:34:44.000Z,9.12
2018-03-27T16:37:12.441Z,9.02
2018-03-27T16:39:40.950Z,9.02
2018-03-27T16:42:09.328Z,8.94
2018-03-27T16:44:37.823Z,8.97
2018-03-27T16:47:06.279Z,8.83
2018-03-27T16:49:35.721Z,8.70
2018-03-27T16:52:04.172Z,8.67
2018-03-27T16:54:32.611Z,8.67
2018-03-27T16:57:01.030Z,8.67
2018-03-27T16:59:29.425Z,8.64
2018-03-27T17:01:57.831Z,8.59
2018-03-27T17:04:30.250Z,8.38
2018-03-27T17:06:58.760Z,8.49
2018-03-27T17:09:27.221Z,8.57
2018-03-27T17:11:55.696Z,8.49
2018-03-27T17:14:28.300Z,8.43
2018-03-27T17:16:57.028Z,8.41
2018-03-27T17:19:25.425Z,8.31
2018-03-27T17:21:53.947Z,8.16
2018-03-27T17:24:24.666Z,8.05
2018-03-27T17:26:53.072Z,8.20
2018-03-27T17:29:21.497Z,8.18
2018-03-27T17:31:49.949Z,8.21
2018-03-27T17:34:18.414Z,8.08
2018-03-27T17:36:46.817Z,7.98
2018-03-27T17:39:15.282Z,7.94
2018-03-27T17:41:43.701Z,7.90
2018-03-27T17:44:12.398Z,7.94
2018-03-27T17:46:44.408Z,7.89
2018-03-27T17:49:12.912Z,7.75
2018-03-27T17:51:43.414Z,7.78
2018-03-27T17:54:11.857Z,7.54
2018-03-27T17:56:40.321Z,7.36
2018-03-27T17:59:10.497Z,7.41
2018-03-27T18:01:38.926Z,7.17
2018-03-27T18:04:07.442Z,7.16
2018-03-27T18:06:37.986Z,7.06
2018-03-27T18:09:06.437Z,6.95
2018-03-27T18:11:36.597Z,7.00
2018-03-27T18:14:05.031Z,6.85
2018-03-27T18:16:33.533Z,6.92
2018-03-27T18:19:02.296Z,6.88
2018-03-27T18:21:31.748Z,6.87
2018-03-27T18:24:00.252Z,7.00
2018-03-27T18:26:28.738Z,6.95
2018-03-27T18:28:57.170Z,6.80
2018-03-27T18:31:25.584Z,6.78
2018-03-27T18:33:54.087Z,6.68
2018-03-27T18:36:24.610Z,6.62
2018-03-27T18:38:53.126Z,6.55
2018-03-27T18:41:21.635Z,6.50
2018-03-27T18:43:51.887Z,6.49
2018-03-27T18:46:22.447Z,6.43
2018-03-27T18:48:50.962Z,6.39
2018-03-27T18:51:23.804Z,6.29
2018-03-27T18:53:52.512Z,6.29
2018-03-27T18:56:20.968Z,6.31
2018-03-27T18:58:51.798Z,6.35
2018-03-27T19:01:24.428Z,6.28
2018-03-27T19:03:52.932Z,6.36
2018-03-27T19:06:22.248Z,6.42
2018-03-27T19:08:50.781Z,6.18
2018-03-27T19:11:19.232Z,6.11
2018-03-27T19:13:47.663Z,6.03
2018-03-27T19:16:16.133Z,6.04
2018-03-27T19:18:46.710Z,6.05
2018-03-27T19:21:15.386Z,5.97
2018-03-27T19:23:46.053Z,5.99
2018-03-27T19:26:16.960Z,5.84
2018-03-27T19:28:45.412Z,5.88
2018-03-27T19:31:13.913Z,5.86
2018-03-27T19:33:42.356Z,5.73
2018-03-27T19:36:13.221Z,5.78
2018-03-27T19:38:43.808Z,5.84
2018-03-27T19:41:14.391Z,5.70
2018-03-27T19:43:42.781Z,5.64
2018-03-27T19:46:11.201Z,5.68
2018-03-27T19:48:41.808Z,5.68
2018-03-27T19:51:12.273Z,5.71
2018-03-27T19:53:40.706Z,5.59
2018-03-27T19:56:09.141Z,5.63
2018-03-27T19:58:39.662Z,5.56
2018-03-27T20:01:08.080Z,5.59
2018-03-27T20:03:40.719Z,5.53
2018-03-27T20:06:09.853Z,5.56
2018-03-27T20:08:40.705Z,5.52
2018-03-27T20:11:11.219Z,5.41
2018-03-27T20:13:39.656Z,5.54
2018-03-27T20:16:08.125Z,5.57
2018-03-27T20:18:36.542Z,5.57
2018-03-27T20:21:05.018Z,5.57
2018-03-27T20:23:34.364Z,5.50
2018-03-27T20:26:04.960Z,5.43
2018-03-27T20:28:33.413Z,5.34
2018-03-27T20:31:01.848Z,5.31
2018-03-27T20:33:32.129Z,5.24
2018-03-27T20:36:00.565Z,5.26
2018-03-27T20:38:29.329Z,5.31
2018-03-27T20:40:58.631Z,5.34
2018-03-27T20:43:29.261Z,5.23
2018-03-27T20:45:57.736Z,5.22
2018-03-27T20:48:26.159Z,5.18
2018-03-27T20:50:54.573Z,5.11
2018-03-27T20:53:25.143Z,5.25
2018-03-27T20:55:53.602Z,5.18
2018-03-27T20:58:22.008Z,5.12
2018-03-27T21:00:52.521Z,5.15
2018-03-27T21:03:20.998Z,5.21
2018-03-27T21:05:51.833Z,5.19
2018-03-27T21:08:22.489Z,5.12
2018-03-27T21:10:50.936Z,5.13
2018-03-27T21:13:19.453Z,5.09
2018-03-27T21:15:47.895Z,5.14
2018-03-27T21:18:18.489Z,5.08
2018-03-27T21:20:46.916Z,5.10
2018-03-27T21:23:15.400Z,5.02
2018-03-27T21:25:43.862Z,5.13
2018-03-27T21:28:12.568Z,5.14
2018-03-27T21:30:43.228Z,5.04
2018-03-27T21:33:11.686Z,5.09
2018-03-27T21:35:40.152Z,5.04
2018-03-27T21:38:08.928Z,4.98
2018-03-27T21:40:39.100Z,5.02
2018-03-27T21:43:07.520Z,4.97
2018-03-27T21:45:38.074Z,4.98
2018-03-27T21:48:08.250Z,5.04
2018-03-27T21:50:39.121Z,5.10
2018-03-27T21:53:07.561Z,5.06
2018-03-27T21:55:35.976Z,5.00
2018-03-27T21:58:04.429Z,5.09
2018-03-27T22:00:32.845Z,5.02
2018-03-27T22:03:03.408Z,4.98
2018-03-27T22:05:33.967Z,5.03
2018-03-27T22:08:04.204Z,5.06
2018-03-27T22:10:33.193Z,4.94
2018-03-27T22:13:01.595Z,5.02
2018-03-27T22:15:29.979Z,5.00
2018-03-27T22:17:58.978Z,5.04
2018-03-27T22:20:27.662Z,5.07
2018-03-27T22:22:56.063Z,5.03
2018-03-27T22:25:24.451Z,5.07
2018-03-27T22:27:52.890Z,5.05
2018-03-27T22:30:21.264Z,5.13
2018-03-27T22:32:49.962Z,5.08
2018-03-27T22:35:18.335Z,5.13
2018-03-27T22:37:46.711Z,5.15
2018-03-27T22:40:15.546Z,5.21
2018-03-27T22:42:46.097Z,5.19
2018-03-27T22:45:14.509Z,5.14
2018-03-27T22:47:42.923Z,5.25
2018-03-27T22:50:12.323Z,5.24
2018-03-27T22:52:42.809Z,5.36
2018-03-27T22:55:12.065Z,5.33
2018-03-27T22:57:40.482Z,5.32
2018-03-27T23:00:08.902Z,5.37
2018-03-27T23:02:37.247Z,5.47
2018-03-27T23:05:07.686Z,5.44
2018-03-27T23:07:36.114Z,5.51
2018-03-27T23:10:04.505Z,5.50
2018-03-27T23:12:33.118Z,5.54
2018-03-27T23:15:01.494Z,5.60
2018-03-27T23:17:29.903Z,5.55
2018-03-27T23:19:58.323Z,5.50
2018-03-27T23:22:27.594Z,5.47
2018-03-27T23:24:58.377Z,5.51
2018-03-27T23:27:26.769Z,5.46
2018-03-27T23:29:55.154Z,5.48
2018-03-27T23:32:23.544Z,5.49
2018-03-27T23:34:51.958Z,5.47
2018-03-27T23:37:20.353Z,5.55
2018-03-27T23:39:50.902Z,5.57
2018-03-27T23:42:19.919Z,5.52
2018-03-27T23:44:48.326Z,5.54
2018-03-27T23:47:16.779Z,5.66
2018-03-27T23:49:45.179Z,5.60
2018-03-27T23:52:13.619Z,5.61
2018-03-27T23:54:42.042Z,5.57
2018-03-27T23:57:10.413Z,5.64
2018-03-27T23:59:38.850Z,5.67
